sensor_id;sensor_type;location;lat;lon;timestamp;P1;durP1;ratioP1;P2;durP2;ratioP2
11211;SDS011;5663;50.864;12.096;2022-08-01T00:14:18;8.63;;;5.47;;
11211;SDS011;5663;50.864;12.096;2022-08-01T00:16:47;5.30;;;4.80;;
11211;SDS011;5663;50.864;12.096;2022-08-01T00:19:17;6.37;;;5.17;;
11211;SDS011;5663;50.864;12.096;2022-08-01T00:21:47;7.47;;;5.20;;
11211;SDS011;5663;50.864;12.096;2022-08-01T00:24:17;5.93;;;5.43;;
11211;SDS011;5663;50.864;12.096;2022-08-01T00:27:04;9.87;;;6.40;;
11211;SDS011;5663;50.864;12.096;2022-08-01T00:29:35;5.57;;;5.17;;
11211;SDS011;5663;50.864;12.096;2022-08-01T00:32:04;7.17;;;5.63;;
11211;SDS011;5663;50.864;12.096;2022-08-01T00:34:34;5.50;;;5.00;;
11211;SDS011;5663;50.864;12.096;2022-08-01T00:37:04;6.33;;;5.80;;
11211;SDS011;5663;50.864;12.096;2022-08-01T00:39:33;7.87;;;5.50;;
11211;SDS011;5663;50.864;12.096;2022-08-01T00:42:05;6.33;;;5.10;;
11211;SDS011;5663;50.864;12.096;2022-08-01T00:44:38;5.63;;;5.17;;
11211;SDS011;5663;50.864;12.096;2022-08-01T00:47:08;5.87;;;5.33;;
11211;SDS011;5663;50.864;12.096;2022-08-01T00:49:37;6.13;;;5.63;;
11211;SDS011;5663;50.864;12.096;2022-08-01T00:52:07;7.33;;;5.87;;
11211;SDS011;5663;50.864;12.096;2022-08-01T00:54:36;6.13;;;5.53;;
11211;SDS011;5663;50.864;12.096;2022-08-01T00:57:25;6.90;;;5.13;;
11211;SDS011;5663;50.864;12.096;2022-08-01T00:59:57;5.83;;;5.27;;
11211;SDS011;5663;50.864;12.096;2022-08-01T01:02:29;5.70;;;5.20;;
11211;SDS011;5663;50.864;12.096;2022-08-01T01:04:58;5.63;;;5.10;;
11211;SDS011;5663;50.864;12.096;2022-08-01T01:07:29;8.03;;;5.33;;
11211;SDS011;5663;50.864;12.096;2022-08-01T01:10:06;7.50;;;6.27;;
11211;SDS011;5663;50.864;12.096;2022-08-01T01:12:43;7.43;;;5.90;;
11211;SDS011;5663;50.864;12.096;2022-08-01T01:15:17;6.80;;;6.20;;
11211;SDS011;5663;50.864;12.096;2022-08-01T01:17:51;8.67;;;6.70;;
11211;SDS011;5663;50.864;12.096;2022-08-01T01:20:24;9.27;;;6.57;;
11211;SDS011;5663;50.864;12.096;2022-08-01T01:23:15;7.40;;;6.67;;
11211;SDS011;5663;50.864;12.096;2022-08-01T01:26:01;7.53;;;6.83;;
11211;SDS011;5663;50.864;12.096;2022-08-01T01:31:36;9.03;;;6.57;;
11211;SDS011;5663;50.864;12.096;2022-08-01T01:34:11;7.70;;;7.00;;
11211;SDS011;5663;50.864;12.096;2022-08-01T01:36:43;8.63;;;7.40;;
11211;SDS011;5663;50.864;12.096;2022-08-01T01:39:13;13.53;;;6.50;;
11211;SDS011;5663;50.864;12.096;2022-08-01T01:41:45;7.10;;;6.40;;
11211;SDS011;5663;50.864;12.096;2022-08-01T01:44:19;7.20;;;6.60;;
11211;SDS011;5663;50.864;12.096;2022-08-01T01:46:51;6.80;;;6.20;;
11211;SDS011;5663;50.864;12.096;2022-08-01T01:49:21;11.63;;;7.73;;
11211;SDS011;5663;50.864;12.096;2022-08-01T01:51:56;7.70;;;6.93;;
11211;SDS011;5663;50.864;12.096;2022-08-01T01:54:28;8.23;;;7.43;;
11211;SDS011;5663;50.864;12.096;2022-08-01T01:57:00;8.80;;;7.73;;
11211;SDS011;5663;50.864;12.096;2022-08-01T01:59:50;7.43;;;6.73;;
11211;SDS011;5663;50.864;12.096;2022-08-01T02:02:22;11.33;;;6.80;;
11211;SDS011;5663;50.864;12.096;2022-08-01T02:04:52;8.00;;;7.27;;
11211;SDS011;5663;50.864;12.096;2022-08-01T02:07:22;7.23;;;6.63;;
11211;SDS011;5663;50.864;12.096;2022-08-01T02:09:54;6.50;;;5.93;;
11211;SDS011;5663;50.864;12.096;2022-08-01T02:12:26;7.17;;;6.47;;
11211;SDS011;5663;50.864;12.096;2022-08-01T02:14:56;7.40;;;6.10;;
11211;SDS011;5663;50.864;12.096;2022-08-01T02:17:33;6.93;;;5.70;;
11211;SDS011;5663;50.864;12.096;2022-08-01T02:20:10;6.00;;;5.50;;
11211;SDS011;5663;50.864;12.096;2022-08-01T02:22:42;9.03;;;7.17;;
11211;SDS011;5663;50.864;12.096;2022-08-01T02:25:18;7.03;;;6.30;;
11211;SDS011;5663;50.864;12.096;2022-08-01T02:27:55;6.73;;;6.13;;
11211;SDS011;5663;50.864;12.096;2022-08-01T02:30:30;6.17;;;5.67;;
11211;SDS011;5663;50.864;12.096;2022-08-01T02:33:07;6.67;;;6.00;;
11211;SDS011;5663;50.864;12.096;2022-08-01T02:35:41;5.57;;;5.07;;
11211;SDS011;5663;50.864;12.096;2022-08-01T02:38:15;6.00;;;5.50;;
11211;SDS011;5663;50.864;12.096;2022-08-01T02:40:47;6.60;;;5.90;;
11211;SDS011;5663;50.864;12.096;2022-08-01T02:43:20;6.80;;;6.20;;
11211;SDS011;5663;50.864;12.096;2022-08-01T02:45:52;7.07;;;6.37;;
11211;SDS011;5663;50.864;12.096;2022-08-01T02:48:25;6.93;;;5.23;;
11211;SDS011;5663;50.864;12.096;2022-08-01T02:50:57;7.00;;;6.17;;
11211;SDS011;5663;50.864;12.096;2022-08-01T02:53:31;8.40;;;6.23;;
11211;SDS011;5663;50.864;12.096;2022-08-01T02:56:11;6.87;;;6.30;;
11211;SDS011;5663;50.864;12.096;2022-08-01T02:58:42;7.00;;;6.30;;
11211;SDS011;5663;50.864;12.096;2022-08-01T03:01:12;7.13;;;5.67;;
11211;SDS011;5663;50.864;12.096;2022-08-01T03:04:08;5.77;;;5.27;;
11211;SDS011;5663;50.864;12.096;2022-08-01T03:06:53;7.97;;;6.50;;
11211;SDS011;5663;50.864;12.096;2022-08-01T03:09:26;6.27;;;5.67;;
11211;SDS011;5663;50.864;12.096;2022-08-01T03:12:11;6.93;;;5.90;;
11211;SDS011;5663;50.864;12.096;2022-08-01T03:14:46;7.90;;;7.10;;
11211;SDS011;5663;50.864;12.096;2022-08-01T03:17:21;6.77;;;6.03;;
11211;SDS011;5663;50.864;12.096;2022-08-01T03:20:03;7.23;;;5.43;;
11211;SDS011;5663;50.864;12.096;2022-08-01T03:22:53;5.90;;;5.30;;
11211;SDS011;5663;50.864;12.096;2022-08-01T03:25:25;6.73;;;6.13;;
11211;SDS011;5663;50.864;12.096;2022-08-01T03:28:02;6.67;;;6.07;;
11211;SDS011;5663;50.864;12.096;2022-08-01T03:30:37;8.40;;;5.93;;
11211;SDS011;5663;50.864;12.096;2022-08-01T03:33:14;5.87;;;5.30;;
11211;SDS011;5663;50.864;12.096;2022-08-01T03:35:47;6.63;;;6.03;;
11211;SDS011;5663;50.864;12.096;2022-08-01T03:38:25;6.87;;;6.27;;
11211;SDS011;5663;50.864;12.096;2022-08-01T03:41:05;6.93;;;6.30;;
11211;SDS011;5663;50.864;12.096;2022-08-01T03:44:05;7.23;;;6.03;;
11211;SDS011;5663;50.864;12.096;2022-08-01T03:53:53;6.23;;;5.73;;
11211;SDS011;5663;50.864;12.096;2022-08-01T03:56:26;9.40;;;6.50;;
11211;SDS011;5663;50.864;12.096;2022-08-01T03:58:59;8.67;;;6.33;;
11211;SDS011;5663;50.864;12.096;2022-08-01T04:01:30;6.63;;;5.77;;
11211;SDS011;5663;50.864;12.096;2022-08-01T04:04:02;8.00;;;5.83;;
11211;SDS011;5663;50.864;12.096;2022-08-01T04:06:33;7.80;;;6.43;;
11211;SDS011;5663;50.864;12.096;2022-08-01T04:09:06;7.40;;;6.80;;
11211;SDS011;5663;50.864;12.096;2022-08-01T04:11:42;7.13;;;6.43;;
11211;SDS011;5663;50.864;12.096;2022-08-01T04:14:10;6.83;;;6.13;;
11211;SDS011;5663;50.864;12.096;2022-08-01T04:16:40;7.23;;;6.30;;
11211;SDS011;5663;50.864;12.096;2022-08-01T04:19:10;6.83;;;6.23;;
11211;SDS011;5663;50.864;12.096;2022-08-01T04:21:41;7.30;;;5.37;;
11211;SDS011;5663;50.864;12.096;2022-08-01T04:24:12;7.17;;;5.53;;
11211;SDS011;5663;50.864;12.096;2022-08-01T04:26:45;6.63;;;6.03;;
11211;SDS011;5663;50.864;12.096;2022-08-01T04:29:15;6.57;;;5.87;;
11211;SDS011;5663;50.864;12.096;2022-08-01T04:31:49;7.90;;;6.13;;
11211;SDS011;5663;50.864;12.096;2022-08-01T04:34:23;8.33;;;6.10;;
11211;SDS011;5663;50.864;12.096;2022-08-01T04:36:54;6.43;;;5.57;;
11211;SDS011;5663;50.864;12.096;2022-08-01T04:39:27;5.57;;;5.07;;
11211;SDS011;5663;50.864;12.096;2022-08-01T04:42:09;8.40;;;5.57;;
11211;SDS011;5663;50.864;12.096;2022-08-01T04:44:50;12.60;;;5.23;;
11211;SDS011;5663;50.864;12.096;2022-08-01T04:47:27;6.20;;;4.27;;
11211;SDS011;5663;50.864;12.096;2022-08-01T04:50:07;6.63;;;3.50;;
11211;SDS011;5663;50.864;12.096;2022-08-01T04:52:42;5.27;;;3.53;;
11211;SDS011;5663;50.864;12.096;2022-08-01T04:55:25;7.53;;;3.50;;
11211;SDS011;5663;50.864;12.096;2022-08-01T04:57:55;7.97;;;4.57;;
11211;SDS011;5663;50.864;12.096;2022-08-01T05:00:29;3.87;;;3.40;;
11211;SDS011;5663;50.864;12.096;2022-08-01T05:03:09;3.57;;;2.70;;
11211;SDS011;5663;50.864;12.096;2022-08-01T05:05:42;3.50;;;2.93;;
11211;SDS011;5663;50.864;12.096;2022-08-01T05:08:30;3.63;;;3.00;;
11211;SDS011;5663;50.864;12.096;2022-08-01T05:11:05;3.03;;;2.70;;
11211;SDS011;5663;50.864;12.096;2022-08-01T05:13:37;3.70;;;2.93;;
11211;SDS011;5663;50.864;12.096;2022-08-01T05:16:07;2.80;;;2.60;;
11211;SDS011;5663;50.864;12.096;2022-08-01T05:18:36;2.60;;;2.40;;
11211;SDS011;5663;50.864;12.096;2022-08-01T05:21:07;5.00;;;2.53;;
11211;SDS011;5663;50.864;12.096;2022-08-01T05:23:51;3.53;;;2.80;;
11211;SDS011;5663;50.864;12.096;2022-08-01T05:26:29;3.07;;;2.77;;
11211;SDS011;5663;50.864;12.096;2022-08-01T05:29:08;3.00;;;2.77;;
11211;SDS011;5663;50.864;12.096;2022-08-01T05:31:47;2.77;;;2.57;;
11211;SDS011;5663;50.864;12.096;2022-08-01T05:34:30;2.57;;;2.37;;
11211;SDS011;5663;50.864;12.096;2022-08-01T05:40:30;2.87;;;2.30;;
11211;SDS011;5663;50.864;12.096;2022-08-01T05:43:13;3.63;;;2.50;;
11211;SDS011;5663;50.864;12.096;2022-08-01T05:46:30;3.87;;;2.40;;
11211;SDS011;5663;50.864;12.096;2022-08-01T05:49:08;5.03;;;2.33;;
11211;SDS011;5663;50.864;12.096;2022-08-01T05:51:55;3.43;;;2.30;;
11211;SDS011;5663;50.864;12.096;2022-08-01T05:54:31;2.80;;;2.50;;
11211;SDS011;5663;50.864;12.096;2022-08-01T05:57:01;2.67;;;2.47;;
11211;SDS011;5663;50.864;12.096;2022-08-01T05:59:38;3.00;;;2.70;;
11211;SDS011;5663;50.864;12.096;2022-08-01T06:02:08;2.87;;;2.40;;
11211;SDS011;5663;50.864;12.096;2022-08-01T06:04:39;3.70;;;2.13;;
11211;SDS011;5663;50.864;12.096;2022-08-01T06:07:11;2.67;;;2.47;;
11211;SDS011;5663;50.864;12.096;2022-08-01T06:09:52;2.50;;;2.30;;
11211;SDS011;5663;50.864;12.096;2022-08-01T06:15:46;3.00;;;2.50;;
11211;SDS011;5663;50.864;12.096;2022-08-01T06:18:22;4.32;;;2.45;;
11211;SDS011;5663;50.864;12.096;2022-08-01T06:20:53;3.47;;;2.10;;
11211;SDS011;5663;50.864;12.096;2022-08-01T06:23:30;2.83;;;2.40;;
11211;SDS011;5663;50.864;12.096;2022-08-01T06:26:06;5.57;;;2.60;;
11211;SDS011;5663;50.864;12.096;2022-08-01T06:28:40;2.80;;;2.17;;
11211;SDS011;5663;50.864;12.096;2022-08-01T06:31:33;2.72;;;2.45;;
11211;SDS011;5663;50.864;12.096;2022-08-01T06:34:03;2.97;;;2.42;;
11211;SDS011;5663;50.864;12.096;2022-08-01T06:36:45;2.42;;;2.22;;
11211;SDS011;5663;50.864;12.096;2022-08-01T06:39:17;3.03;;;2.30;;
11211;SDS011;5663;50.864;12.096;2022-08-01T06:41:53;3.13;;;2.30;;
11211;SDS011;5663;50.864;12.096;2022-08-01T06:44:43;4.35;;;2.50;;
11211;SDS011;5663;50.864;12.096;2022-08-01T06:47:28;3.25;;;2.55;;
11211;SDS011;5663;50.864;12.096;2022-08-01T06:50:15;2.50;;;2.30;;
11211;SDS011;5663;50.864;12.096;2022-08-01T06:52:52;4.82;;;2.80;;
11211;SDS011;5663;50.864;12.096;2022-08-01T06:55:47;3.30;;;2.40;;
11211;SDS011;5663;50.864;12.096;2022-08-01T06:58:24;2.92;;;2.58;;
11211;SDS011;5663;50.864;12.096;2022-08-01T07:01:00;2.55;;;2.20;;
11211;SDS011;5663;50.864;12.096;2022-08-01T07:06:28;3.25;;;2.20;;
11211;SDS011;5663;50.864;12.096;2022-08-01T07:09:51;2.35;;;2.13;;
11211;SDS011;5663;50.864;12.096;2022-08-01T07:13:18;2.63;;;2.08;;
11211;SDS011;5663;50.864;12.096;2022-08-01T07:24:35;3.75;;;1.92;;
11211;SDS011;5663;50.864;12.096;2022-08-01T07:30:33;3.45;;;2.30;;
11211;SDS011;5663;50.864;12.096;2022-08-01T07:33:14;2.75;;;2.10;;
11211;SDS011;5663;50.864;12.096;2022-08-01T07:39:38;4.22;;;1.92;;
11211;SDS011;5663;50.864;12.096;2022-08-01T07:42:09;1.95;;;1.80;;
11211;SDS011;5663;50.864;12.096;2022-08-01T07:44:50;2.63;;;1.60;;
11211;SDS011;5663;50.864;12.096;2022-08-01T07:47:51;4.80;;;1.42;;
11211;SDS011;5663;50.864;12.096;2022-08-01T07:50:34;1.63;;;1.50;;
11211;SDS011;5663;50.864;12.096;2022-08-01T07:53:14;1.58;;;1.30;;
11211;SDS011;5663;50.864;12.096;2022-08-01T07:59:32;2.65;;;1.52;;
11211;SDS011;5663;50.864;12.096;2022-08-01T08:02:09;1.52;;;1.40;;
11211;SDS011;5663;50.864;12.096;2022-08-01T08:04:49;1.35;;;0.80;;
11211;SDS011;5663;50.864;12.096;2022-08-01T08:07:18;1.10;;;1.10;;
11211;SDS011;5663;50.864;12.096;2022-08-01T08:10:03;2.42;;;1.20;;
11211;SDS011;5663;50.864;12.096;2022-08-01T08:13:02;1.45;;;1.10;;
11211;SDS011;5663;50.864;12.096;2022-08-01T08:16:17;1.08;;;0.98;;
11211;SDS011;5663;50.864;12.096;2022-08-01T08:18:49;1.38;;;1.10;;
11211;SDS011;5663;50.864;12.096;2022-08-01T08:21:20;1.20;;;1.00;;
11211;SDS011;5663;50.864;12.096;2022-08-01T08:23:53;1.50;;;1.08;;
11211;SDS011;5663;50.864;12.096;2022-08-01T08:26:41;1.30;;;1.15;;
11211;SDS011;5663;50.864;12.096;2022-08-01T08:29:30;1.50;;;1.23;;
11211;SDS011;5663;50.864;12.096;2022-08-01T08:32:08;1.20;;;1.10;;
11211;SDS011;5663;50.864;12.096;2022-08-01T08:34:39;2.70;;;1.30;;
11211;SDS011;5663;50.864;12.096;2022-08-01T08:37:22;2.70;;;1.40;;
11211;SDS011;5663;50.864;12.096;2022-08-01T08:43:22;1.90;;;1.20;;
11211;SDS011;5663;50.864;12.096;2022-08-01T08:46:00;1.27;;;1.17;;
11211;SDS011;5663;50.864;12.096;2022-08-01T08:49:15;1.63;;;1.10;;
11211;SDS011;5663;50.864;12.096;2022-08-01T08:51:49;1.13;;;1.08;;
11211;SDS011;5663;50.864;12.096;2022-08-01T08:58:17;2.30;;;1.15;;
11211;SDS011;5663;50.864;12.096;2022-08-01T09:00:57;1.50;;;1.40;;
11211;SDS011;5663;50.864;12.096;2022-08-01T09:03:32;1.10;;;1.10;;
11211;SDS011;5663;50.864;12.096;2022-08-01T09:06:09;2.63;;;1.17;;
11211;SDS011;5663;50.864;12.096;2022-08-01T09:08:46;2.08;;;1.20;;
11211;SDS011;5663;50.864;12.096;2022-08-01T09:11:26;1.20;;;1.10;;
11211;SDS011;5663;50.864;12.096;2022-08-01T09:14:10;1.75;;;1.48;;
11211;SDS011;5663;50.864;12.096;2022-08-01T09:16:42;1.40;;;1.30;;
11211;SDS011;5663;50.864;12.096;2022-08-01T09:26:31;1.48;;;1.13;;
11211;SDS011;5663;50.864;12.096;2022-08-01T09:31:58;4.50;;;1.20;;
11211;SDS011;5663;50.864;12.096;2022-08-01T09:42:21;1.60;;;1.00;;
11211;SDS011;5663;50.864;12.096;2022-08-01T09:52:48;2.50;;;1.20;;
11211;SDS011;5663;50.864;12.096;2022-08-01T10:05:52;2.42;;;1.10;;
11211;SDS011;5663;50.864;12.096;2022-08-01T10:24:53;1.25;;;1.10;;
11211;SDS011;5663;50.864;12.096;2022-08-01T10:27:43;1.10;;;1.00;;
11211;SDS011;5663;50.864;12.096;2022-08-01T10:30:18;1.27;;;0.80;;
11211;SDS011;5663;50.864;12.096;2022-08-01T10:32:52;0.88;;;0.88;;
11211;SDS011;5663;50.864;12.096;2022-08-01T10:39:54;0.60;;;0.60;;
11211;SDS011;5663;50.864;12.096;2022-08-01T10:46:50;1.75;;;0.90;;
11211;SDS011;5663;50.864;12.096;2022-08-01T11:12:50;0.75;;;0.75;;
11211;SDS011;5663;50.864;12.096;2022-08-01T11:15:22;9.82;;;1.25;;
11211;SDS011;5663;50.864;12.096;2022-08-01T11:32:49;0.52;;;0.52;;
11211;SDS011;5663;50.864;12.096;2022-08-01T12:03:30;1.27;;;0.55;;
11211;SDS011;5663;50.864;12.096;2022-08-01T12:10:48;0.85;;;0.85;;
11211;SDS011;5663;50.864;12.096;2022-08-01T12:13:50;2.33;;;0.80;;
11211;SDS011;5663;50.864;12.096;2022-08-01T12:16:33;1.25;;;0.60;;
11211;SDS011;5663;50.864;12.096;2022-08-01T12:22:24;0.65;;;0.65;;
11211;SDS011;5663;50.864;12.096;2022-08-01T12:55:51;1.00;;;0.50;;
11211;SDS011;5663;50.864;12.096;2022-08-01T12:58:38;0.60;;;0.60;;
11211;SDS011;5663;50.864;12.096;2022-08-01T13:11:36;2.20;;;0.40;;
11211;SDS011;5663;50.864;12.096;2022-08-01T13:15:12;0.93;;;0.60;;
11211;SDS011;5663;50.864;12.096;2022-08-01T13:25:29;0.95;;;0.70;;
11211;SDS011;5663;50.864;12.096;2022-08-01T13:31:19;0.50;;;0.50;;
11211;SDS011;5663;50.864;12.096;2022-08-01T13:34:02;0.95;;;0.60;;
11211;SDS011;5663;50.864;12.096;2022-08-01T13:47:21;0.70;;;0.55;;
11211;SDS011;5663;50.864;12.096;2022-08-01T13:50:00;0.55;;;0.40;;
11211;SDS011;5663;50.864;12.096;2022-08-01T13:59:25;0.55;;;0.50;;
11211;SDS011;5663;50.864;12.096;2022-08-01T14:01:54;1.23;;;0.50;;
11211;SDS011;5663;50.864;12.096;2022-08-01T14:04:28;0.43;;;0.43;;
11211;SDS011;5663;50.864;12.096;2022-08-01T14:10:45;1.60;;;1.50;;
11211;SDS011;5663;50.864;12.096;2022-08-01T14:13:17;0.70;;;0.70;;
11211;SDS011;5663;50.864;12.096;2022-08-01T14:15:51;1.15;;;0.50;;
11211;SDS011;5663;50.864;12.096;2022-08-01T14:18:20;0.40;;;0.40;;
11211;SDS011;5663;50.864;12.096;2022-08-01T14:20:51;1.92;;;0.60;;
11211;SDS011;5663;50.864;12.096;2022-08-01T14:23:26;0.60;;;0.60;;
11211;SDS011;5663;50.864;12.096;2022-08-01T14:25:59;0.70;;;0.70;;
11211;SDS011;5663;50.864;12.096;2022-08-01T14:28:33;0.40;;;0.40;;
11211;SDS011;5663;50.864;12.096;2022-08-01T14:31:03;1.17;;;0.50;;
11211;SDS011;5663;50.864;12.096;2022-08-01T14:33:34;0.50;;;0.50;;
11211;SDS011;5663;50.864;12.096;2022-08-01T14:36:45;0.63;;;0.63;;
11211;SDS011;5663;50.864;12.096;2022-08-01T14:39:13;0.43;;;0.43;;
11211;SDS011;5663;50.864;12.096;2022-08-01T14:41:45;0.43;;;0.43;;
11211;SDS011;5663;50.864;12.096;2022-08-01T14:44:14;0.60;;;0.60;;
11211;SDS011;5663;50.864;12.096;2022-08-01T14:46:44;2.58;;;0.47;;
11211;SDS011;5663;50.864;12.096;2022-08-01T15:00:07;1.75;;;0.50;;
11211;SDS011;5663;50.864;12.096;2022-08-01T15:02:49;6.63;;;0.68;;
11211;SDS011;5663;50.864;12.096;2022-08-01T15:05:20;0.68;;;0.60;;
11211;SDS011;5663;50.864;12.096;2022-08-01T15:12:30;2.10;;;0.70;;
11211;SDS011;5663;50.864;12.096;2022-08-01T15:22:33;2.58;;;0.70;;
11211;SDS011;5663;50.864;12.096;2022-08-01T15:25:08;3.42;;;0.70;;
11211;SDS011;5663;50.864;12.096;2022-08-01T15:27:50;1.13;;;0.80;;
11211;SDS011;5663;50.864;12.096;2022-08-01T15:30:19;1.92;;;1.00;;
11211;SDS011;5663;50.864;12.096;2022-08-01T15:32:47;0.70;;;0.70;;
11211;SDS011;5663;50.864;12.096;2022-08-01T15:35:16;0.77;;;0.77;;
11211;SDS011;5663;50.864;12.096;2022-08-01T15:38:10;1.02;;;0.90;;
11211;SDS011;5663;50.864;12.096;2022-08-01T15:40:44;0.82;;;0.82;;
11211;SDS011;5663;50.864;12.096;2022-08-01T15:43:18;0.80;;;0.80;;
11211;SDS011;5663;50.864;12.096;2022-08-01T15:45:47;1.48;;;0.90;;
11211;SDS011;5663;50.864;12.096;2022-08-01T15:48:15;1.05;;;0.80;;
11211;SDS011;5663;50.864;12.096;2022-08-01T15:50:59;2.33;;;0.90;;
11211;SDS011;5663;50.864;12.096;2022-08-01T15:53:56;4.45;;;1.00;;
11211;SDS011;5663;50.864;12.096;2022-08-01T15:56:38;2.03;;;1.00;;
11211;SDS011;5663;50.864;12.096;2022-08-01T15:59:10;0.98;;;0.98;;
11211;SDS011;5663;50.864;12.096;2022-08-01T16:01:38;0.82;;;0.82;;
11211;SDS011;5663;50.864;12.096;2022-08-01T16:04:08;1.08;;;0.98;;
11211;SDS011;5663;50.864;12.096;2022-08-01T16:06:41;0.95;;;0.82;;
11211;SDS011;5663;50.864;12.096;2022-08-01T16:09:12;0.88;;;0.88;;
11211;SDS011;5663;50.864;12.096;2022-08-01T16:11:44;1.55;;;0.90;;
11211;SDS011;5663;50.864;12.096;2022-08-01T16:15:47;1.52;;;0.95;;
11211;SDS011;5663;50.864;12.096;2022-08-01T16:17:26;2.78;;;0.90;;
11211;SDS011;5663;50.864;12.096;2022-08-01T16:21:28;0.70;;;0.70;;
11211;SDS011;5663;50.864;12.096;2022-08-01T16:29:33;3.63;;;0.95;;
11211;SDS011;5663;50.864;12.096;2022-08-01T16:32:41;1.63;;;0.80;;
11211;SDS011;5663;50.864;12.096;2022-08-01T16:42:23;0.80;;;0.80;;
11211;SDS011;5663;50.864;12.096;2022-08-01T16:45:09;1.45;;;1.00;;
11211;SDS011;5663;50.864;12.096;2022-08-01T16:48:33;1.02;;;0.88;;
11211;SDS011;5663;50.864;12.096;2022-08-01T16:51:07;3.25;;;1.10;;
11211;SDS011;5663;50.864;12.096;2022-08-01T16:54:31;0.93;;;0.93;;
11211;SDS011;5663;50.864;12.096;2022-08-01T16:57:13;1.40;;;1.15;;
11211;SDS011;5663;50.864;12.096;2022-08-01T16:59:58;1.48;;;1.10;;
11211;SDS011;5663;50.864;12.096;2022-08-01T17:02:40;0.90;;;0.90;;
11211;SDS011;5663;50.864;12.096;2022-08-01T17:08:31;1.40;;;1.30;;
11211;SDS011;5663;50.864;12.096;2022-08-01T17:11:34;1.40;;;1.30;;
11211;SDS011;5663;50.864;12.096;2022-08-01T17:14:11;2.25;;;1.48;;
11211;SDS011;5663;50.864;12.096;2022-08-01T17:16:42;1.50;;;1.40;;
11211;SDS011;5663;50.864;12.096;2022-08-01T17:22:42;1.50;;;1.40;;
11211;SDS011;5663;50.864;12.096;2022-08-01T17:25:24;1.48;;;1.25;;
11211;SDS011;5663;50.864;12.096;2022-08-01T17:27:52;1.40;;;1.30;;
11211;SDS011;5663;50.864;12.096;2022-08-01T17:30:22;2.45;;;1.35;;
11211;SDS011;5663;50.864;12.096;2022-08-01T17:40:43;2.60;;;1.17;;
11211;SDS011;5663;50.864;12.096;2022-08-01T17:43:28;3.78;;;1.10;;
11211;SDS011;5663;50.864;12.096;2022-08-01T17:47:02;1.00;;;1.00;;
11211;SDS011;5663;50.864;12.096;2022-08-01T18:15:13;2.17;;;1.67;;
11211;SDS011;5663;50.864;12.096;2022-08-01T18:17:57;1.45;;;1.20;;
11211;SDS011;5663;50.864;12.096;2022-08-01T18:27:43;1.73;;;1.63;;
11211;SDS011;5663;50.864;12.096;2022-08-01T18:59:10;1.70;;;1.60;;
11211;SDS011;5663;50.864;12.096;2022-08-01T19:02:48;2.83;;;1.60;;
11211;SDS011;5663;50.864;12.096;2022-08-01T19:05:25;6.38;;;1.70;;
11211;SDS011;5663;50.864;12.096;2022-08-01T19:07:56;2.35;;;1.58;;
11211;SDS011;5663;50.864;12.096;2022-08-01T19:10:31;3.45;;;1.50;;
11211;SDS011;5663;50.864;12.096;2022-08-01T19:13:03;3.40;;;1.60;;
11211;SDS011;5663;50.864;12.096;2022-08-01T19:18:43;1.75;;;1.65;;
11211;SDS011;5663;50.864;12.096;2022-08-01T19:21:13;1.55;;;1.45;;
11211;SDS011;5663;50.864;12.096;2022-08-01T19:23:43;2.35;;;1.88;;
11211;SDS011;5663;50.864;12.096;2022-08-01T19:26:31;2.65;;;1.50;;
11211;SDS011;5663;50.864;12.096;2022-08-01T19:29:08;2.25;;;1.80;;
11211;SDS011;5663;50.864;12.096;2022-08-01T19:35:35;1.60;;;1.50;;
11211;SDS011;5663;50.864;12.096;2022-08-01T19:38:11;2.05;;;1.95;;
11211;SDS011;5663;50.864;12.096;2022-08-01T19:40:43;1.77;;;1.67;;
11211;SDS011;5663;50.864;12.096;2022-08-01T19:43:28;2.08;;;1.77;;
11211;SDS011;5663;50.864;12.096;2022-08-01T19:46:03;3.42;;;2.10;;
11211;SDS011;5663;50.864;12.096;2022-08-01T19:48:41;2.22;;;2.03;;
11211;SDS011;5663;50.864;12.096;2022-08-01T19:51:14;2.33;;;1.80;;
11211;SDS011;5663;50.864;12.096;2022-08-01T19:53:49;2.47;;;1.98;;
11211;SDS011;5663;50.864;12.096;2022-08-01T19:56:26;3.78;;;2.40;;
11211;SDS011;5663;50.864;12.096;2022-08-01T19:59:03;2.53;;;2.10;;
11211;SDS011;5663;50.864;12.096;2022-08-01T20:01:38;3.08;;;2.17;;
11211;SDS011;5663;50.864;12.096;2022-08-01T20:04:12;2.15;;;2.05;;
11211;SDS011;5663;50.864;12.096;2022-08-01T20:06:45;2.60;;;2.40;;
11211;SDS011;5663;50.864;12.096;2022-08-01T20:09:17;2.10;;;2.00;;
11211;SDS011;5663;50.864;12.096;2022-08-01T20:11:48;2.67;;;2.30;;
11211;SDS011;5663;50.864;12.096;2022-08-01T20:14:23;4.25;;;2.30;;
11211;SDS011;5663;50.864;12.096;2022-08-01T20:16:54;2.75;;;2.53;;
11211;SDS011;5663;50.864;12.096;2022-08-01T20:19:26;3.63;;;2.40;;
11211;SDS011;5663;50.864;12.096;2022-08-01T20:22:01;2.60;;;2.28;;
11211;SDS011;5663;50.864;12.096;2022-08-01T20:24:34;2.90;;;2.70;;
11211;SDS011;5663;50.864;12.096;2022-08-01T20:27:06;3.97;;;2.40;;
11211;SDS011;5663;50.864;12.096;2022-08-01T20:29:36;2.58;;;2.40;;
11211;SDS011;5663;50.864;12.096;2022-08-01T20:32:05;7.95;;;2.80;;
11211;SDS011;5663;50.864;12.096;2022-08-01T20:34:35;2.80;;;2.42;;
11211;SDS011;5663;50.864;12.096;2022-08-01T20:37:08;3.63;;;2.25;;
11211;SDS011;5663;50.864;12.096;2022-08-01T20:39:39;3.60;;;2.25;;
11211;SDS011;5663;50.864;12.096;2022-08-01T20:42:08;2.65;;;2.45;;
11211;SDS011;5663;50.864;12.096;2022-08-01T20:44:44;3.60;;;2.35;;
11211;SDS011;5663;50.864;12.096;2022-08-01T20:47:16;2.83;;;2.60;;
11211;SDS011;5663;50.864;12.096;2022-08-01T20:52:51;2.70;;;2.50;;
11211;SDS011;5663;50.864;12.096;2022-08-01T20:55:22;2.90;;;2.70;;
11211;SDS011;5663;50.864;12.096;2022-08-01T20:58:03;3.33;;;3.03;;
11211;SDS011;5663;50.864;12.096;2022-08-01T21:00:44;3.27;;;2.60;;
11211;SDS011;5663;50.864;12.096;2022-08-01T21:03:21;4.37;;;2.90;;
11211;SDS011;5663;50.864;12.096;2022-08-01T21:06:00;3.37;;;2.90;;
11211;SDS011;5663;50.864;12.096;2022-08-01T21:08:51;3.50;;;2.63;;
11211;SDS011;5663;50.864;12.096;2022-08-01T21:11:31;4.07;;;2.57;;
11211;SDS011;5663;50.864;12.096;2022-08-01T21:14:16;3.57;;;3.10;;
11211;SDS011;5663;50.864;12.096;2022-08-01T21:16:53;3.70;;;3.30;;
11211;SDS011;5663;50.864;12.096;2022-08-01T21:19:30;3.97;;;3.10;;
11211;SDS011;5663;50.864;12.096;2022-08-01T21:22:06;3.93;;;2.87;;
11211;SDS011;5663;50.864;12.096;2022-08-01T21:24:45;3.30;;;3.00;;
11211;SDS011;5663;50.864;12.096;2022-08-01T21:27:55;2.97;;;2.77;;
11211;SDS011;5663;50.864;12.096;2022-08-01T21:30:25;3.30;;;3.00;;
11211;SDS011;5663;50.864;12.096;2022-08-01T21:36:46;6.77;;;3.00;;
11211;SDS011;5663;50.864;12.096;2022-08-01T21:39:18;3.03;;;2.53;;
11211;SDS011;5663;50.864;12.096;2022-08-01T21:42:06;2.77;;;2.50;;
11211;SDS011;5663;50.864;12.096;2022-08-01T21:44:41;3.50;;;2.80;;
11211;SDS011;5663;50.864;12.096;2022-08-01T21:47:14;4.47;;;3.13;;
11211;SDS011;5663;50.864;12.096;2022-08-01T21:49:47;3.23;;;2.70;;
11211;SDS011;5663;50.864;12.096;2022-08-01T21:52:27;4.83;;;2.73;;
11211;SDS011;5663;50.864;12.096;2022-08-01T21:58:09;5.47;;;3.70;;
11211;SDS011;5663;50.864;12.096;2022-08-01T22:00:59;3.83;;;3.40;;
11211;SDS011;5663;50.864;12.096;2022-08-01T22:03:47;3.20;;;2.87;;
11211;SDS011;5663;50.864;12.096;2022-08-01T22:06:30;4.53;;;2.70;;
11211;SDS011;5663;50.864;12.096;2022-08-01T22:09:04;2.90;;;2.70;;
11211;SDS011;5663;50.864;12.096;2022-08-01T22:14:32;3.50;;;3.20;;
11211;SDS011;5663;50.864;12.096;2022-08-01T22:17:03;3.63;;;3.30;;
11211;SDS011;5663;50.864;12.096;2022-08-01T22:19:34;3.40;;;2.90;;
11211;SDS011;5663;50.864;12.096;2022-08-01T22:22:05;2.83;;;2.63;;
11211;SDS011;5663;50.864;12.096;2022-08-01T22:24:44;3.80;;;3.30;;
11211;SDS011;5663;50.864;12.096;2022-08-01T22:27:18;4.27;;;3.40;;
11211;SDS011;5663;50.864;12.096;2022-08-01T22:29:55;3.93;;;3.20;;
11211;SDS011;5663;50.864;12.096;2022-08-01T22:32:26;5.10;;;3.33;;